createdAt,value
2019-01-03T00:01:45.035Z,101878.38
2019-01-03T00:04:40.960Z,101890.48
2019-01-03T00:07:43.912Z,101890.98
2019-01-03T00:10:36.854Z,101890.09
2019-01-03T00:13:24.761Z,101876.75
2019-01-03T00:16:14.639Z,101891.80
2019-01-03T00:19:10.392Z,101885.72
2019-01-03T00:22:06.064Z,101896.47
2019-01-03T00:25:08.268Z,101893.19
2019-01-03T00:28:07.381Z,101885.52
2019-01-03T00:30:57.561Z,101899.70
2019-01-03T00:34:05.888Z,101902.72
2019-01-03T00:36:54.711Z,101903.94
2019-01-03T00:39:44.567Z,101913.56
2019-01-03T00:42:27.857Z,101921.09
2019-01-03T00:45:08.722Z,101919.97
2019-01-03T00:48:10.473Z,101927.59
2019-01-03T00:51:03.435Z,101922.73
2019-01-03T00:54:08.272Z,101936.33
2019-01-03T00:56:56.767Z,101936.67
2019-01-03T00:59:45.275Z,101935.95
2019-01-03T01:02:35.136Z,101939.02
2019-01-03T01:05:34.257Z,101938.80
2019-01-03T01:08:23.051Z,101940.03
2019-01-03T01:11:28.244Z,101951.83
2019-01-03T01:14:18.179Z,101950.55
2019-01-03T01:17:06.694Z,101955.81
2019-01-03T01:19:55.537Z,101947.06
2019-01-03T01:22:45.515Z,101956.55
2019-01-03T01:25:38.119Z,101953.33
2019-01-03T01:28:26.531Z,101954.30
2019-01-03T01:31:16.411Z,101953.16
2019-01-03T01:34:09.318Z,101963.30
2019-01-03T01:37:05.293Z,101959.30
2019-01-03T01:40:04.379Z,101957.37
2019-01-03T01:42:53.247Z,101957.96
2019-01-03T01:45:42.128Z,101951.31
2019-01-03T01:48:30.571Z,101955.58
2019-01-03T01:51:19.044Z,101951.49
2019-01-03T01:54:19.722Z,101953.73
2019-01-03T01:57:09.591Z,101948.52
2019-01-03T01:59:57.910Z,101944.44
2019-01-03T02:02:47.742Z,101944.70
2019-01-03T02:05:49.610Z,101943.02
2019-01-03T02:08:38.554Z,101931.65
2019-01-03T02:11:34.792Z,101931.79
2019-01-03T02:14:27.437Z,101932.20
2019-01-03T02:17:23.355Z,101932.80
2019-01-03T02:20:10.031Z,101926.97
2019-01-03T02:22:59.864Z,101920.47
2019-01-03T02:25:59.138Z,101928.72
2019-01-03T02:28:47.513Z,101924.64
2019-01-03T02:31:40.364Z,101918.41
2019-01-03T02:34:30.190Z,101920.05
2019-01-03T02:37:35.277Z,101918.16
2019-01-03T02:40:31.516Z,101917.56
2019-01-03T02:43:39.756Z,101919.91
2019-01-03T02:46:35.418Z,101923.85
2019-01-03T02:49:23.914Z,101910.65
2019-01-03T02:52:22.861Z,101922.62
2019-01-03T02:55:18.201Z,101918.31
2019-01-03T02:58:11.031Z,101911.61
2019-01-03T03:01:05.432Z,101911.34
2019-01-03T03:03:54.068Z,101911.25
2019-01-03T03:06:42.977Z,101902.77
2019-01-03T03:09:32.793Z,101905.52
2019-01-03T03:12:25.664Z,101908.40
2019-01-03T03:15:14.321Z,101901.84
2019-01-03T03:18:04.188Z,101910.33
2019-01-03T03:21:06.082Z,101899.55
2019-01-03T03:23:55.921Z,101903.49
2019-01-03T03:27:00.997Z,101897.25
2019-01-03T03:30:00.064Z,101889.69
2019-01-03T03:32:48.475Z,101886.11
2019-01-03T03:35:37.123Z,101879.00
2019-01-03T03:38:42.413Z,101878.13
2019-01-03T03:41:29.220Z,101884.47
2019-01-03T03:44:13.981Z,101882.07
2019-01-03T03:47:22.489Z,101883.10
2019-01-03T03:50:18.542Z,101879.67
2019-01-03T03:53:11.203Z,101879.83
2019-01-03T03:56:19.266Z,101879.98
2019-01-03T03:59:26.688Z,101874.20
2019-01-03T04:02:15.132Z,101879.53
2019-01-03T04:05:13.955Z,101881.27
2019-01-03T04:08:09.645Z,101896.00
2019-01-03T04:11:08.632Z,101891.77
2019-01-03T04:13:58.473Z,101897.91
2019-01-03T04:16:43.265Z,101900.11
2019-01-03T04:19:51.482Z,101895.75
2019-01-03T04:22:41.353Z,101898.83
2019-01-03T04:25:40.321Z,101889.91
2019-01-03T04:28:48.674Z,101891.59
2019-01-03T04:31:53.984Z,101891.76
2019-01-03T04:34:48.696Z,101896.42
2019-01-03T04:37:37.407Z,101898.00
2019-01-03T04:40:36.534Z,101904.86
2019-01-03T04:43:38.425Z,101899.39
2019-01-03T04:46:28.301Z,101895.64
2019-01-03T04:49:21.080Z,101882.23
2019-01-03T04:52:13.984Z,101881.00
2019-01-03T04:55:03.081Z,101891.34
2019-01-03T04:57:58.949Z,101889.41
2019-01-03T05:00:54.941Z,101890.28
2019-01-03T05:03:43.719Z,101904.15
2019-01-03T05:06:43.807Z,101902.30
2019-01-03T05:09:33.654Z,101902.41
2019-01-03T05:12:29.315Z,101906.95
2019-01-03T05:15:10.058Z,101903.92
2019-01-03T05:17:58.538Z,101904.84
2019-01-03T05:20:46.563Z,101904.80
2019-01-03T05:23:36.498Z,101896.80
2019-01-03T05:26:32.183Z,101901.16
2019-01-03T05:29:37.293Z,101892.17
2019-01-03T05:32:36.107Z,101888.95
2019-01-03T05:35:42.022Z,101891.20
2019-01-03T05:38:41.835Z,101886.59
2019-01-03T05:41:43.867Z,101903.88
2019-01-03T05:44:29.605Z,101902.36
2019-01-03T05:47:28.487Z,101886.17
2019-01-03T05:50:18.323Z,101902.18
2019-01-03T05:53:06.946Z,101905.02
2019-01-03T05:55:46.177Z,101905.11
2019-01-03T05:58:54.657Z,101924.32
2019-01-03T06:01:47.332Z,101918.91
2019-01-03T06:04:35.777Z,101923.73
2019-01-03T06:07:24.622Z,101916.76
2019-01-03T06:10:23.747Z,101905.02
2019-01-03T06:13:12.537Z,101917.90
2019-01-03T06:16:08.910Z,101925.47
2019-01-03T06:18:57.297Z,101923.91
2019-01-03T06:21:53.136Z,101924.45
2019-01-03T06:24:42.966Z,101925.18
2019-01-03T06:27:31.345Z,101932.80
2019-01-03T06:30:21.195Z,101926.41
2019-01-03T06:33:07.284Z,101926.80
2019-01-03T06:36:03.175Z,101931.51
2019-01-03T06:38:51.965Z,101932.71
2019-01-03T06:41:43.170Z,101944.49
2019-01-03T06:44:29.708Z,101959.63
2019-01-03T06:47:18.520Z,101953.48
2019-01-03T06:50:07.367Z,101952.56
2019-01-03T06:52:57.222Z,101961.87
2019-01-03T06:55:56.320Z,101958.94
2019-01-03T06:58:46.104Z,101953.07
2019-01-03T07:01:33.806Z,101955.21
2019-01-03T07:04:26.427Z,101967.68
2019-01-03T07:07:18.706Z,101972.17
2019-01-03T07:10:08.389Z,101973.82
2019-01-03T07:13:11.373Z,101970.84
2019-01-03T07:16:01.288Z,101974.14
2019-01-03T07:19:06.515Z,101986.08
2019-01-03T07:21:55.091Z,101993.85
2019-01-03T07:24:51.209Z,101988.77
2019-01-03T07:27:48.173Z,101991.65
2019-01-03T07:30:56.118Z,101998.78
2019-01-03T07:33:44.584Z,101996.52
2019-01-03T07:36:33.400Z,101998.40
2019-01-03T07:39:24.971Z,102000.14
2019-01-03T07:42:18.068Z,102007.90
2019-01-03T07:45:06.523Z,102012.52
2019-01-03T07:48:00.889Z,102010.88
2019-01-03T07:50:59.762Z,102009.14
2019-01-03T07:53:48.597Z,102006.75
2019-01-03T07:56:41.549Z,102002.77
2019-01-03T07:59:31.480Z,102001.44
2019-01-03T08:02:27.439Z,102009.70
2019-01-03T08:05:16.145Z,102007.13
2019-01-03T08:08:04.830Z,102013.36
2019-01-03T08:11:03.882Z,102012.67
2019-01-03T08:13:52.651Z,102021.94
2019-01-03T08:16:51.650Z,102017.72
2019-01-03T08:19:50.713Z,102018.48
2019-01-03T08:22:40.561Z,102018.00
2019-01-03T08:25:30.459Z,102023.80
2019-01-03T08:28:35.550Z,102031.03
2019-01-03T08:31:31.412Z,102031.55
2019-01-03T08:34:21.494Z,102036.31
2019-01-03T08:37:10.522Z,102040.16
2019-01-03T08:39:59.268Z,102046.55
2019-01-03T08:42:47.979Z,102036.98
2019-01-03T08:45:50.377Z,102035.11
2019-01-03T08:48:39.299Z,102036.34
2019-01-03T08:51:28.282Z,102049.77
2019-01-03T08:54:16.999Z,102044.23
2019-01-03T08:57:08.152Z,102043.92
2019-01-03T08:59:56.533Z,102052.38
2019-01-03T09:02:47.436Z,102046.78
2019-01-03T09:05:52.436Z,102056.31
2019-01-03T09:08:41.138Z,102058.90
2019-01-03T09:11:29.960Z,102054.80
2019-01-03T09:14:32.132Z,102055.46
2019-01-03T09:17:17.280Z,102052.19
2019-01-03T09:20:05.794Z,102056.19
2019-01-03T09:22:54.220Z,102063.61
2019-01-03T09:25:42.959Z,102059.80
2019-01-03T09:28:32.848Z,102065.44
2019-01-03T09:31:22.660Z,102062.31
2019-01-03T09:34:11.515Z,102073.17
2019-01-03T09:36:51.966Z,102069.79
2019-01-03T09:39:50.993Z,102080.66
2019-01-03T09:42:55.987Z,102077.33
2019-01-03T09:45:26.895Z,102075.17
2019-01-03T09:47:57.865Z,102075.83
2019-01-03T09:50:28.841Z,102081.98
2019-01-03T09:52:59.792Z,102073.83
2019-01-03T09:55:30.702Z,102078.18
2019-01-03T09:58:01.683Z,102076.25
2019-01-03T10:00:32.671Z,102076.39
2019-01-03T10:03:03.662Z,102078.92
2019-01-03T10:05:34.575Z,102071.63
2019-01-03T10:08:05.523Z,102062.21
2019-01-03T10:10:36.458Z,102074.13
2019-01-03T10:13:07.388Z,102079.10
2019-01-03T10:15:38.362Z,102075.02
2019-01-03T10:18:09.353Z,102082.70
2019-01-03T10:20:40.375Z,102079.92
2019-01-03T10:23:11.317Z,102082.30
2019-01-03T10:25:42.258Z,102084.91
2019-01-03T10:28:13.205Z,102083.77
2019-01-03T10:30:44.203Z,102090.56
2019-01-03T10:33:15.154Z,102083.24
2019-01-03T10:35:46.090Z,102076.97
2019-01-03T10:38:20.970Z,102083.59
2019-01-03T10:40:49.717Z,102080.00
2019-01-03T10:43:20.635Z,102084.70
2019-01-03T10:45:52.647Z,102080.92
2019-01-03T10:48:23.678Z,102082.78
2019-01-03T10:50:54.593Z,102079.33
2019-01-03T10:53:25.589Z,102081.54
2019-01-03T10:55:56.590Z,102090.50
2019-01-03T10:58:27.559Z,102085.69
2019-01-03T11:00:58.698Z,102085.27
2019-01-03T11:03:29.622Z,102087.05
2019-01-03T11:06:00.558Z,102082.45
2019-01-03T11:08:31.575Z,102081.70
2019-01-03T11:11:02.561Z,102086.32
2019-01-03T11:13:33.492Z,102084.73
2019-01-03T11:16:04.419Z,102084.83
2019-01-03T11:18:35.421Z,102075.73
2019-01-03T11:21:06.454Z,102074.67
2019-01-03T11:23:37.559Z,102076.28
2019-01-03T11:26:08.574Z,102083.05
2019-01-03T11:28:39.515Z,102080.17
2019-01-03T11:31:10.458Z,102079.66
2019-01-03T11:33:41.485Z,102078.64
2019-01-03T11:36:12.466Z,102085.25
2019-01-03T11:38:43.385Z,102080.17
2019-01-03T11:41:15.154Z,102081.86
2019-01-03T11:43:46.571Z,102084.72
2019-01-03T11:46:17.585Z,102084.14
2019-01-03T11:48:48.801Z,102079.22
2019-01-03T11:51:19.722Z,102085.64
2019-01-03T11:53:50.648Z,102086.95
2019-01-03T11:56:21.592Z,102085.31
2019-01-03T11:58:52.528Z,102082.16
2019-01-03T12:01:23.464Z,102080.25
2019-01-03T12:03:54.470Z,102078.89
2019-01-03T12:06:25.372Z,102083.56
2019-01-03T12:08:56.329Z,102092.64
2019-01-03T12:11:27.256Z,102098.39
2019-01-03T12:13:58.183Z,102103.10
2019-01-03T12:16:29.088Z,102108.22
2019-01-03T12:19:00.009Z,102107.60
2019-01-03T12:21:30.930Z,102115.08
2019-01-03T12:24:01.848Z,102117.23
2019-01-03T12:26:32.771Z,102110.30
2019-01-03T12:29:03.688Z,102113.98
2019-01-03T12:31:34.621Z,102113.05
2019-01-03T12:34:05.562Z,102110.08
2019-01-03T12:36:36.527Z,102105.48
2019-01-03T12:39:07.957Z,102106.30
2019-01-03T12:41:38.949Z,102110.81
2019-01-03T12:44:09.887Z,102117.08
2019-01-03T12:46:40.806Z,102116.83
2019-01-03T12:49:11.741Z,102114.09
2019-01-03T12:51:42.721Z,102123.23
2019-01-03T12:54:13.748Z,102118.50
2019-01-03T12:56:44.731Z,102119.45
2019-01-03T12:59:15.663Z,102130.56
2019-01-03T13:01:46.690Z,102125.33
2019-01-03T13:04:17.642Z,102134.92
2019-01-03T13:06:48.604Z,102126.89
2019-01-03T13:09:19.842Z,102134.55
2019-01-03T13:11:50.777Z,102135.26
2019-01-03T13:14:21.721Z,102125.37
2019-01-03T13:16:52.647Z,102129.20
2019-01-03T13:19:23.565Z,102129.91
2019-01-03T13:21:54.515Z,102139.30
2019-01-03T13:24:25.438Z,102144.27
2019-01-03T13:26:56.421Z,102145.85
2019-01-03T13:29:27.396Z,102142.52
2019-01-03T13:31:58.321Z,102141.06
2019-01-03T13:34:29.319Z,102143.88
2019-01-03T13:37:00.318Z,102149.34
2019-01-03T13:39:31.361Z,102144.21
2019-01-03T13:42:02.336Z,102146.50
2019-01-03T13:44:33.282Z,102157.25
2019-01-03T13:47:04.772Z,102156.20
2019-01-03T13:49:35.699Z,102158.48
2019-01-03T13:52:06.667Z,102163.64
2019-01-03T13:54:37.601Z,102160.37
2019-01-03T13:57:08.537Z,102156.93
2019-01-03T13:59:39.448Z,102158.16
2019-01-03T14:02:10.445Z,102162.57
2019-01-03T14:04:42.334Z,102159.35
2019-01-03T14:07:13.333Z,102167.30
2019-01-03T14:09:44.283Z,102168.53
2019-01-03T14:12:15.220Z,102166.55
2019-01-03T14:14:46.198Z,102180.28
2019-01-03T14:17:17.213Z,102180.74
2019-01-03T14:19:48.123Z,102179.82
2019-01-03T14:22:19.152Z,102180.45
2019-01-03T14:24:50.132Z,102177.98
2019-01-03T14:27:21.173Z,102179.55
2019-01-03T14:29:52.159Z,102174.92
2019-01-03T14:32:23.083Z,102178.61
2019-01-03T14:34:54.074Z,102175.38
2019-01-03T14:37:24.998Z,102179.28
2019-01-03T14:39:55.930Z,102173.64
2019-01-03T14:42:26.867Z,102181.03
2019-01-03T14:44:57.802Z,102185.58
2019-01-03T14:47:28.727Z,102182.72
2019-01-03T14:49:59.694Z,102195.65
2019-01-03T14:52:30.627Z,102199.30
2019-01-03T14:55:01.561Z,102200.01
2019-01-03T14:57:32.579Z,102203.34
2019-01-03T15:00:03.657Z,102200.63
2019-01-03T15:02:34.694Z,102205.39
2019-01-03T15:05:05.644Z,102194.40
2019-01-03T15:07:36.677Z,102200.50
2019-01-03T15:10:08.355Z,102202.14
2019-01-03T15:12:39.339Z,102203.28
2019-01-03T15:15:10.253Z,102199.50
2019-01-03T15:17:41.216Z,102204.78
2019-01-03T15:20:12.691Z,102205.70
2019-01-03T15:22:43.678Z,102215.23
2019-01-03T15:25:14.675Z,102217.05
2019-01-03T15:27:45.712Z,102217.02
2019-01-03T15:30:16.649Z,102218.80
2019-01-03T15:32:55.292Z,102226.33
2019-01-03T15:35:26.246Z,102224.20
2019-01-03T15:37:57.297Z,102233.48
2019-01-03T15:40:28.237Z,102239.67
2019-01-03T15:43:00.294Z,102237.05
2019-01-03T15:45:31.329Z,102240.05
2019-01-03T15:48:02.294Z,102240.75
2019-01-03T15:50:34.380Z,102250.95
2019-01-03T15:53:05.441Z,102258.18
2019-01-03T15:55:36.497Z,102268.24
2019-01-03T15:58:07.422Z,102262.46
2019-01-03T16:00:38.408Z,102276.43
2019-01-03T16:03:09.538Z,102273.72
2019-01-03T16:05:40.633Z,102270.46
2019-01-03T16:08:14.006Z,102272.22
2019-01-03T16:10:45.118Z,102276.05
2019-01-03T16:13:16.286Z,102277.83
2019-01-03T16:15:47.281Z,102281.75
2019-01-03T16:18:18.305Z,102273.20
2019-01-03T16:20:49.287Z,102274.11
2019-01-03T16:23:20.285Z,102273.51
2019-01-03T16:25:51.300Z,102274.61
2019-01-03T16:28:22.302Z,102283.53
2019-01-03T16:30:53.214Z,102287.63
2019-01-03T16:33:24.205Z,102285.58
2019-01-03T16:35:55.129Z,102293.13
2019-01-03T16:38:26.061Z,102297.92
2019-01-03T16:40:57.007Z,102301.60
2019-01-03T16:43:28.021Z,102298.00
2019-01-03T16:45:59.032Z,102302.78
2019-01-03T16:48:29.988Z,102293.44
2019-01-03T16:51:00.911Z,102305.34
2019-01-03T16:53:31.944Z,102301.27
2019-01-03T16:56:02.905Z,102305.11
2019-01-03T16:58:33.893Z,102308.45
2019-01-03T17:01:04.848Z,102306.55
2019-01-03T17:03:35.836Z,102302.98
2019-01-03T17:06:12.456Z,102308.37
2019-01-03T17:08:43.411Z,102314.08
2019-01-03T17:11:14.401Z,102315.90
2019-01-03T17:13:45.466Z,102311.64
2019-01-03T17:16:16.526Z,102312.52
2019-01-03T17:18:47.693Z,102316.05
2019-01-03T17:21:18.724Z,102311.22
2019-01-03T17:23:50.093Z,102316.53
2019-01-03T17:26:21.094Z,102317.30
2019-01-03T17:28:52.074Z,102309.39
2019-01-03T17:31:23.151Z,102304.11
2019-01-03T17:33:54.142Z,102302.97
2019-01-03T17:36:25.170Z,102302.69
2019-01-03T17:38:56.171Z,102298.35
2019-01-03T17:41:27.111Z,102297.73
2019-01-03T17:43:58.106Z,102301.81
2019-01-03T17:46:29.302Z,102309.41
2019-01-03T17:49:00.271Z,102310.02
2019-01-03T17:51:31.373Z,102309.22
2019-01-03T17:54:02.311Z,102310.12
2019-01-03T17:56:33.281Z,102310.64
2019-01-03T17:59:04.200Z,102316.02
2019-01-03T18:01:35.127Z,102318.74
2019-01-03T18:04:06.130Z,102324.96
2019-01-03T18:06:37.049Z,102319.23
2019-01-03T18:09:16.903Z,102327.13
2019-01-03T18:11:48.995Z,102332.45
2019-01-03T18:14:21.317Z,102330.70
2019-01-03T18:16:52.293Z,102332.99
2019-01-03T18:19:25.573Z,102342.71
2019-01-03T18:21:56.976Z,102341.80
2019-01-03T18:24:28.011Z,102338.85
2019-01-03T18:26:58.927Z,102346.98
2019-01-03T18:29:29.947Z,102351.80
2019-01-03T18:32:01.047Z,102350.58
2019-01-03T18:34:33.117Z,102348.70
2019-01-03T18:37:04.109Z,102352.95
2019-01-03T18:39:35.127Z,102353.09
2019-01-03T18:42:06.275Z,102354.48
2019-01-03T18:44:37.230Z,102359.86
2019-01-03T18:47:08.235Z,102367.01
2019-01-03T18:49:39.330Z,102360.12
2019-01-03T18:52:10.419Z,102364.11
2019-01-03T18:54:41.363Z,102366.01
2019-01-03T18:57:12.348Z,102366.52
2019-01-03T18:59:43.286Z,102369.20
2019-01-03T19:02:14.330Z,102371.77
2019-01-03T19:04:45.298Z,102376.17
2019-01-03T19:07:16.478Z,102371.88
2019-01-03T19:09:47.522Z,102376.34
2019-01-03T19:12:18.759Z,102375.41
2019-01-03T19:14:53.158Z,102376.43
2019-01-03T19:17:24.229Z,102383.91
2019-01-03T19:19:55.271Z,102391.95
2019-01-03T19:22:26.479Z,102388.05
2019-01-03T19:24:57.996Z,102389.30
2019-01-03T19:27:28.993Z,102387.58
2019-01-03T19:30:01.760Z,102393.81
2019-01-03T19:32:32.808Z,102391.21
2019-01-03T19:35:03.868Z,102389.91
2019-01-03T19:37:35.238Z,102393.89
2019-01-03T19:40:09.037Z,102396.52
2019-01-03T19:42:40.210Z,102404.85
2019-01-03T19:45:12.021Z,102400.95
2019-01-03T19:47:43.485Z,102415.09
2019-01-03T19:50:17.331Z,102406.70
2019-01-03T19:52:48.303Z,102410.30
2019-01-03T19:55:19.259Z,102415.67
2019-01-03T19:57:50.226Z,102419.13
2019-01-03T20:00:21.226Z,102417.32
2019-01-03T20:02:52.172Z,102417.30
2019-01-03T20:05:23.117Z,102419.52
2019-01-03T20:07:54.116Z,102420.85
2019-01-03T20:10:25.168Z,102428.76
2019-01-03T20:12:56.256Z,102430.11
2019-01-03T20:15:27.257Z,102426.08
2019-01-03T20:17:58.542Z,102421.65
2019-01-03T20:20:29.507Z,102427.36
2019-01-03T20:23:00.535Z,102426.08
2019-01-03T20:25:31.521Z,102426.98
2019-01-03T20:28:02.557Z,102431.34
2019-01-03T20:30:33.594Z,102435.80
2019-01-03T20:33:04.636Z,102436.59
2019-01-03T20:35:35.660Z,102433.52
2019-01-03T20:38:06.726Z,102431.23
2019-01-03T20:40:37.738Z,102431.13
2019-01-03T20:43:08.711Z,102419.58
2019-01-03T20:45:39.837Z,102427.63
2019-01-03T20:48:10.785Z,102428.50
2019-01-03T20:50:41.754Z,102426.66
2019-01-03T20:53:12.744Z,102427.54
2019-01-03T20:55:43.686Z,102419.07
2019-01-03T20:58:14.770Z,102422.66
2019-01-03T21:00:45.772Z,102418.28
2019-01-03T21:03:18.057Z,102413.25
2019-01-03T21:05:49.021Z,102418.64
2019-01-03T21:08:19.967Z,102418.16
2019-01-03T21:10:51.036Z,102420.67
2019-01-03T21:13:22.036Z,102410.96
2019-01-03T21:15:53.105Z,102419.44
2019-01-03T21:18:24.049Z,102412.12
2019-01-03T21:20:54.976Z,102413.81
2019-01-03T21:23:25.937Z,102413.87
2019-01-03T21:25:56.884Z,102412.06
2019-01-03T21:28:27.841Z,102409.01
2019-01-03T21:30:58.754Z,102407.59
2019-01-03T21:33:29.755Z,102406.92
2019-01-03T21:36:00.754Z,102408.05
2019-01-03T21:38:31.875Z,102407.98
2019-01-03T21:41:02.858Z,102410.61
2019-01-03T21:43:33.897Z,102417.67
2019-01-03T21:46:04.918Z,102410.59
2019-01-03T21:48:35.855Z,102418.47
2019-01-03T21:51:06.897Z,102419.25
2019-01-03T21:53:37.880Z,102425.41
2019-01-03T21:56:08.955Z,102422.75
2019-01-03T21:58:39.950Z,102430.66
2019-01-03T22:01:10.896Z,102430.72
2019-01-03T22:03:41.916Z,102429.84
2019-01-03T22:06:12.854Z,102424.50
2019-01-03T22:08:44.972Z,102427.64
2019-01-03T22:11:15.970Z,102431.96
2019-01-03T22:13:47.002Z,102427.98
2019-01-03T22:16:18.013Z,102439.42
2019-01-03T22:18:49.006Z,102425.14
2019-01-03T22:21:19.942Z,102429.22
2019-01-03T22:23:50.940Z,102430.54
2019-01-03T22:26:21.876Z,102426.61
2019-01-03T22:28:52.914Z,102420.58
2019-01-03T22:31:23.882Z,102415.69
2019-01-03T22:33:55.230Z,102413.09
2019-01-03T22:36:26.806Z,102415.78
2019-01-03T22:38:57.857Z,102418.22
2019-01-03T22:41:28.861Z,102417.83
2019-01-03T22:44:00.854Z,102411.54
2019-01-03T22:46:31.873Z,102413.97
2019-01-03T22:49:02.815Z,102412.64
2019-01-03T22:51:33.792Z,102411.34
2019-01-03T22:54:04.737Z,102423.11
2019-01-03T22:56:35.711Z,102414.88
2019-01-03T22:59:06.665Z,102408.69
2019-01-03T23:01:37.632Z,102402.88
2019-01-03T23:04:08.709Z,102404.25
2019-01-03T23:06:39.791Z,102403.11
2019-01-03T23:09:10.766Z,102400.98
2019-01-03T23:11:41.777Z,102403.73
2019-01-03T23:14:12.733Z,102404.51
2019-01-03T23:16:43.740Z,102405.02
2019-01-03T23:19:14.724Z,102410.80
2019-01-03T23:21:45.650Z,102413.74
2019-01-03T23:24:16.604Z,102415.17
2019-01-03T23:26:47.556Z,102411.22
2019-01-03T23:29:18.534Z,102420.52
2019-01-03T23:31:49.457Z,102419.91
2019-01-03T23:34:20.417Z,102421.78
2019-01-03T23:36:55.044Z,102424.86
2019-01-03T23:39:25.983Z,102430.53
2019-01-03T23:41:57.009Z,102417.63
2019-01-03T23:44:33.690Z,102432.28
2019-01-03T23:47:04.982Z,102427.88
2019-01-03T23:49:36.073Z,102427.94
2019-01-03T23:52:07.370Z,102436.39
2019-01-03T23:54:45.353Z,102438.59
2019-01-03T23:57:18.103Z,102433.34
2019-01-03T23:59:49.586Z,102436.75
